Fairmead, California
Current Conditions -  °F | °C
As of 3:53 PM on Sunday 21 Dec 2014 (Local Time) from KMAE Reporting Station
Overcast Overcast  
Wind Chill: 61°   Ceiling: 2200
Heat Index: 61°   Visibility: 9mi
Dew Point: 54°   Wind: 0mph
Humidity: 78%   Direction: NA
Pressure: 30.24"   Gusts: NA
Location:  37.1043°N, 120.246°W
Report Text: KMAE 212353Z AUTO 00000KT 9SM OVC022 16/12 A3024 RMK AO2 SLP237 T01610122 10161 20111 56005
Loading
Personal Weather Stations






























Interactive Weather Map New forecast layout! Learn more

10-Day Weather Forecast

Advertisements
Track Severe Weather on mobile